createdAt,value
2023-01-21T08:59:37.562Z,976.40
2023-01-21T09:11:37.949Z,976.85
2023-01-21T09:23:38.455Z,976.85
2023-01-21T09:35:39.289Z,976.74
2023-01-21T09:47:39.359Z,976.68
2023-01-21T09:59:39.865Z,976.51
2023-01-21T10:11:40.267Z,976.61
2023-01-21T10:23:42.872Z,976.71
2023-01-21T10:35:41.147Z,976.61
2023-01-21T10:47:41.634Z,976.68
2023-01-21T10:59:42.053Z,976.53
2023-01-21T11:11:42.550Z,976.65
2023-01-21T11:23:42.994Z,976.52
2023-01-21T11:35:43.405Z,976.51
2023-01-21T11:47:43.896Z,976.60
2023-01-21T11:59:44.324Z,976.63
2023-01-21T12:11:44.756Z,976.65
2023-01-21T12:23:45.191Z,976.62
2023-01-21T12:35:45.691Z,976.74
2023-01-21T12:47:46.117Z,976.83
2023-01-21T12:59:46.542Z,976.99
2023-01-21T13:11:47.034Z,976.98
2023-01-21T13:23:47.515Z,976.89
2023-01-21T13:35:47.954Z,977.13
2023-01-21T13:47:48.395Z,977.31
2023-01-21T13:59:48.841Z,977.37
2023-01-21T14:11:49.315Z,977.42
2023-01-21T14:23:49.748Z,977.49
2023-01-21T14:35:50.167Z,977.58
2023-01-21T14:47:50.661Z,977.56
2023-01-21T14:59:51.244Z,977.63
2023-01-21T15:11:51.595Z,977.78
2023-01-21T15:23:51.982Z,977.92
2023-01-21T15:35:52.503Z,978.06
2023-01-21T15:47:52.914Z,978.26
2023-01-21T15:59:53.337Z,978.34
2023-01-21T16:11:53.819Z,978.51
2023-01-21T16:23:54.347Z,978.58
2023-01-21T16:35:54.732Z,978.64
2023-01-21T16:47:55.165Z,978.57
2023-01-21T16:59:55.620Z,978.75
2023-01-21T17:11:56.037Z,978.83
2023-01-21T17:23:56.529Z,978.94
2023-01-21T17:35:56.956Z,979.09
2023-01-21T17:48:10.229Z,979.25
2023-01-21T17:59:57.876Z,979.42
2023-01-21T18:11:58.393Z,979.50
2023-01-21T18:23:58.805Z,979.72
2023-01-21T18:35:59.236Z,979.76
2023-01-21T18:47:59.732Z,979.90
2023-01-21T19:00:00.132Z,980.00
2023-01-21T19:12:00.598Z,980.00
2023-01-21T19:24:01.004Z,980.05
2023-01-21T19:36:01.471Z,980.07
2023-01-21T19:48:01.898Z,980.15
2023-01-21T20:00:02.440Z,980.22
2023-01-21T20:12:04.314Z,980.40
2023-01-21T20:24:03.270Z,980.39
2023-01-21T20:36:03.747Z,980.44
2023-01-21T20:48:04.182Z,980.47
2023-01-21T21:00:04.648Z,980.36
2023-01-21T21:12:05.063Z,980.48
2023-01-21T21:24:05.569Z,980.63
2023-01-21T21:36:05.978Z,980.54
2023-01-21T21:48:06.453Z,980.62
2023-01-21T22:00:06.854Z,980.72
2023-01-21T22:12:07.395Z,980.79
2023-01-21T22:24:07.806Z,980.67
2023-01-21T22:36:08.247Z,980.66
2023-01-21T22:48:08.673Z,980.70
2023-01-21T22:54:08.658Z,980.70
2023-01-21T23:00:08.645Z,980.76
2023-01-21T23:06:08.659Z,980.73
2023-01-21T23:13:05.811Z,980.67
2023-01-21T23:19:05.861Z,980.77
2023-01-21T23:25:05.874Z,980.84
2023-01-21T23:31:05.994Z,980.83
2023-01-21T23:37:05.897Z,980.77
2023-01-21T23:43:05.915Z,980.76
2023-01-21T23:49:05.900Z,980.70
2023-01-21T23:55:05.931Z,980.74
